sensor_id;sensor_type;location;lat;lon;timestamp;pressure;altitude;pressure_sealevel;temperature;humidity
31346;BME280;21711;49.708;18.568;2023-07-24T00:01:56;96843.50;;;24.18;68.47
31346;BME280;21711;49.708;18.568;2023-07-24T00:04:23;96840.31;;;24.09;69.68
31346;BME280;21711;49.708;18.568;2023-07-24T00:06:50;96837.03;;;24.26;69.38
31346;BME280;21711;49.708;18.568;2023-07-24T00:09:18;96834.22;;;24.15;69.31
31346;BME280;21711;49.708;18.568;2023-07-24T00:11:45;96831.50;;;24.12;70.19
31346;BME280;21711;49.708;18.568;2023-07-24T00:14:12;96836.94;;;24.15;69.57
31346;BME280;21711;49.708;18.568;2023-07-24T00:16:40;96826.59;;;24.25;68.94
31346;BME280;21711;49.708;18.568;2023-07-24T00:19:07;96820.09;;;24.29;68.96
31346;BME280;21711;49.708;18.568;2023-07-24T00:21:34;96825.84;;;24.28;69.14
31346;BME280;21711;49.708;18.568;2023-07-24T00:24:02;96824.34;;;24.34;69.38
31346;BME280;21711;49.708;18.568;2023-07-24T00:26:29;96820.44;;;24.28;70.76
31346;BME280;21711;49.708;18.568;2023-07-24T00:28:59;96822.31;;;24.20;70.35
31346;BME280;21711;49.708;18.568;2023-07-24T00:31:27;96826.19;;;24.23;70.30
31346;BME280;21711;49.708;18.568;2023-07-24T00:33:54;96827.75;;;24.24;71.04
31346;BME280;21711;49.708;18.568;2023-07-24T00:36:21;96821.56;;;24.23;70.97
31346;BME280;21711;49.708;18.568;2023-07-24T00:38:48;96833.16;;;24.24;71.33
31346;BME280;21711;49.708;18.568;2023-07-24T00:41:16;96828.84;;;24.15;72.22
31346;BME280;21711;49.708;18.568;2023-07-24T00:43:43;96826.13;;;24.15;72.06
31346;BME280;21711;49.708;18.568;2023-07-24T00:46:11;96828.81;;;24.12;73.41
31346;BME280;21711;49.708;18.568;2023-07-24T00:48:39;96823.78;;;24.10;73.17
31346;BME280;21711;49.708;18.568;2023-07-24T00:51:07;96824.81;;;24.02;74.41
31346;BME280;21711;49.708;18.568;2023-07-24T00:53:34;96819.03;;;24.00;74.00
31346;BME280;21711;49.708;18.568;2023-07-24T00:56:02;96827.13;;;23.96;75.68
31346;BME280;21711;49.708;18.568;2023-07-24T00:58:30;96829.03;;;23.96;76.69
31346;BME280;21711;49.708;18.568;2023-07-24T01:00:58;96818.97;;;23.93;76.78
31346;BME280;21711;49.708;18.568;2023-07-24T01:03:34;96823.56;;;23.88;77.60
31346;BME280;21711;49.708;18.568;2023-07-24T01:06:03;96830.88;;;23.84;78.74
31346;BME280;21711;49.708;18.568;2023-07-24T01:08:30;96834.03;;;23.94;77.57
31346;BME280;21711;49.708;18.568;2023-07-24T01:11:20;96835.09;;;23.85;77.90
31346;BME280;21711;49.708;18.568;2023-07-24T01:14:24;96838.19;;;23.87;79.11
31346;BME280;21711;49.708;18.568;2023-07-24T01:16:55;96840.41;;;23.74;81.02
31346;BME280;21711;49.708;18.568;2023-07-24T01:19:47;96845.69;;;23.63;82.49
31346;BME280;21711;49.708;18.568;2023-07-24T01:22:32;96853.75;;;23.60;83.01
31346;BME280;21711;49.708;18.568;2023-07-24T01:25:56;96849.00;;;23.49;84.75
31346;BME280;21711;49.708;18.568;2023-07-24T01:28:26;96846.66;;;23.48;84.54
31346;BME280;21711;49.708;18.568;2023-07-24T01:30:54;96843.19;;;23.47;84.40
31346;BME280;21711;49.708;18.568;2023-07-24T01:33:22;96842.75;;;23.42;85.50
31346;BME280;21711;49.708;18.568;2023-07-24T01:35:57;96851.94;;;23.37;86.73
31346;BME280;21711;49.708;18.568;2023-07-24T01:38:26;96849.84;;;23.23;88.25
31346;BME280;21711;49.708;18.568;2023-07-24T01:40:55;96846.59;;;23.10;92.52
31346;BME280;21711;49.708;18.568;2023-07-24T01:43:26;96852.41;;;22.85;97.41
31346;BME280;21711;49.708;18.568;2023-07-24T01:45:54;96848.88;;;22.81;95.95
31346;BME280;21711;49.708;18.568;2023-07-24T01:48:22;96849.66;;;22.81;97.17
31346;BME280;21711;49.708;18.568;2023-07-24T01:50:50;96850.69;;;22.73;99.01
31346;BME280;21711;49.708;18.568;2023-07-24T01:53:17;96847.59;;;22.71;97.12
31346;BME280;21711;49.708;18.568;2023-07-24T01:55:45;96846.88;;;22.74;97.10
31346;BME280;21711;49.708;18.568;2023-07-24T01:58:12;96854.47;;;22.65;97.04
31346;BME280;21711;49.708;18.568;2023-07-24T02:00:39;96845.22;;;22.66;97.67
31346;BME280;21711;49.708;18.568;2023-07-24T02:03:06;96849.66;;;22.54;100.00
31346;BME280;21711;49.708;18.568;2023-07-24T02:05:34;96837.41;;;22.33;100.00
31346;BME280;21711;49.708;18.568;2023-07-24T02:08:02;96838.69;;;22.16;100.00
31346;BME280;21711;49.708;18.568;2023-07-24T02:10:30;96838.09;;;22.03;100.00
31346;BME280;21711;49.708;18.568;2023-07-24T02:12:57;96835.56;;;21.91;100.00
31346;BME280;21711;49.708;18.568;2023-07-24T02:15:24;96833.81;;;21.79;100.00
31346;BME280;21711;49.708;18.568;2023-07-24T02:17:52;96836.63;;;21.66;100.00
31346;BME280;21711;49.708;18.568;2023-07-24T02:20:19;96833.25;;;21.50;100.00
31346;BME280;21711;49.708;18.568;2023-07-24T02:22:47;96825.47;;;21.45;100.00
31346;BME280;21711;49.708;18.568;2023-07-24T02:25:14;96832.25;;;21.38;100.00
31346;BME280;21711;49.708;18.568;2023-07-24T02:27:42;96820.19;;;21.28;100.00
31346;BME280;21711;49.708;18.568;2023-07-24T02:30:10;96817.72;;;21.20;100.00
31346;BME280;21711;49.708;18.568;2023-07-24T02:32:37;96820.53;;;21.07;100.00
31346;BME280;21711;49.708;18.568;2023-07-24T02:35:05;96815.25;;;20.95;100.00
31346;BME280;21711;49.708;18.568;2023-07-24T02:37:33;96817.34;;;20.85;100.00
31346;BME280;21711;49.708;18.568;2023-07-24T02:40:00;96816.59;;;20.85;100.00
31346;BME280;21711;49.708;18.568;2023-07-24T02:42:27;96813.81;;;20.81;100.00
31346;BME280;21711;49.708;18.568;2023-07-24T02:44:55;96814.19;;;20.80;100.00
31346;BME280;21711;49.708;18.568;2023-07-24T02:47:22;96818.13;;;20.86;100.00
31346;BME280;21711;49.708;18.568;2023-07-24T02:49:50;96816.50;;;20.81;100.00
31346;BME280;21711;49.708;18.568;2023-07-24T02:52:17;96830.72;;;20.82;100.00
31346;BME280;21711;49.708;18.568;2023-07-24T02:54:44;96822.00;;;20.69;100.00
31346;BME280;21711;49.708;18.568;2023-07-24T02:57:12;96823.03;;;20.64;100.00
31346;BME280;21711;49.708;18.568;2023-07-24T02:59:39;96828.19;;;20.53;100.00
31346;BME280;21711;49.708;18.568;2023-07-24T03:02:06;96822.97;;;20.44;100.00
31346;BME280;21711;49.708;18.568;2023-07-24T03:04:33;96833.47;;;20.33;100.00
31346;BME280;21711;49.708;18.568;2023-07-24T03:07:01;96828.97;;;20.21;100.00
31346;BME280;21711;49.708;18.568;2023-07-24T03:09:28;96835.47;;;20.20;100.00
31346;BME280;21711;49.708;18.568;2023-07-24T03:11:55;96830.78;;;20.17;100.00
31346;BME280;21711;49.708;18.568;2023-07-24T03:14:23;96837.13;;;20.09;100.00
31346;BME280;21711;49.708;18.568;2023-07-24T03:16:51;96837.50;;;19.95;100.00
31346;BME280;21711;49.708;18.568;2023-07-24T03:19:18;96843.66;;;19.95;100.00
31346;BME280;21711;49.708;18.568;2023-07-24T03:21:47;96835.72;;;19.99;100.00
31346;BME280;21711;49.708;18.568;2023-07-24T03:24:14;96833.25;;;19.94;100.00
31346;BME280;21711;49.708;18.568;2023-07-24T03:26:42;96838.88;;;19.89;100.00
31346;BME280;21711;49.708;18.568;2023-07-24T03:29:09;96832.56;;;19.97;100.00
31346;BME280;21711;49.708;18.568;2023-07-24T03:31:36;96843.09;;;20.02;100.00
31346;BME280;21711;49.708;18.568;2023-07-24T03:34:04;96835.38;;;20.01;100.00
31346;BME280;21711;49.708;18.568;2023-07-24T03:36:31;96833.63;;;20.08;100.00
31346;BME280;21711;49.708;18.568;2023-07-24T03:38:58;96828.28;;;20.08;100.00
31346;BME280;21711;49.708;18.568;2023-07-24T03:41:25;96825.84;;;20.19;100.00
31346;BME280;21711;49.708;18.568;2023-07-24T03:43:54;96830.88;;;20.37;100.00
31346;BME280;21711;49.708;18.568;2023-07-24T03:46:21;96822.22;;;20.44;100.00
31346;BME280;21711;49.708;18.568;2023-07-24T03:48:49;96825.06;;;20.51;100.00
31346;BME280;21711;49.708;18.568;2023-07-24T03:51:17;96827.97;;;20.62;100.00
31346;BME280;21711;49.708;18.568;2023-07-24T03:53:45;96827.34;;;20.85;100.00
31346;BME280;21711;49.708;18.568;2023-07-24T03:56:12;96835.28;;;20.97;100.00
31346;BME280;21711;49.708;18.568;2023-07-24T03:58:40;96837.34;;;21.04;100.00
31346;BME280;21711;49.708;18.568;2023-07-24T04:01:08;96841.53;;;21.21;100.00
31346;BME280;21711;49.708;18.568;2023-07-24T04:03:36;96834.50;;;21.56;100.00
31346;BME280;21711;49.708;18.568;2023-07-24T04:06:03;96835.78;;;21.82;100.00
31346;BME280;21711;49.708;18.568;2023-07-24T04:08:31;96834.59;;;22.03;100.00
31346;BME280;21711;49.708;18.568;2023-07-24T04:10:58;96838.63;;;22.13;100.00
31346;BME280;21711;49.708;18.568;2023-07-24T04:13:25;96838.97;;;22.11;100.00
31346;BME280;21711;49.708;18.568;2023-07-24T04:15:53;96839.50;;;22.20;100.00
31346;BME280;21711;49.708;18.568;2023-07-24T04:18:20;96846.50;;;22.25;100.00
31346;BME280;21711;49.708;18.568;2023-07-24T04:20:47;96844.03;;;22.40;100.00
31346;BME280;21711;49.708;18.568;2023-07-24T04:23:15;96846.06;;;22.70;100.00
31346;BME280;21711;49.708;18.568;2023-07-24T04:25:42;96850.66;;;22.96;100.00
31346;BME280;21711;49.708;18.568;2023-07-24T04:28:09;96843.28;;;23.24;100.00
31346;BME280;21711;49.708;18.568;2023-07-24T04:30:37;96840.56;;;23.51;100.00
31346;BME280;21711;49.708;18.568;2023-07-24T04:33:04;96852.03;;;23.82;100.00
31346;BME280;21711;49.708;18.568;2023-07-24T04:35:31;96855.44;;;24.10;100.00
31346;BME280;21711;49.708;18.568;2023-07-24T04:37:59;96855.53;;;24.24;100.00
31346;BME280;21711;49.708;18.568;2023-07-24T04:40:26;96851.44;;;24.45;100.00
31346;BME280;21711;49.708;18.568;2023-07-24T04:42:53;96854.94;;;24.46;98.62
31346;BME280;21711;49.708;18.568;2023-07-24T04:45:21;96855.84;;;24.64;97.51
31346;BME280;21711;49.708;18.568;2023-07-24T04:47:50;96860.47;;;24.64;99.24
31346;BME280;21711;49.708;18.568;2023-07-24T04:50:17;96857.06;;;24.78;96.58
31346;BME280;21711;49.708;18.568;2023-07-24T04:52:45;96863.38;;;24.93;95.94
31346;BME280;21711;49.708;18.568;2023-07-24T04:55:12;96869.34;;;25.31;93.54
31346;BME280;21711;49.708;18.568;2023-07-24T04:57:39;96871.34;;;25.49;90.83
31346;BME280;21711;49.708;18.568;2023-07-24T05:00:07;96876.16;;;26.10;83.58
31346;BME280;21711;49.708;18.568;2023-07-24T05:02:35;96874.22;;;26.76;78.05
31346;BME280;21711;49.708;18.568;2023-07-24T05:05:03;96867.53;;;27.25;72.10
31346;BME280;21711;49.708;18.568;2023-07-24T05:07:30;96867.72;;;27.78;70.11
31346;BME280;21711;49.708;18.568;2023-07-24T05:09:58;96869.78;;;28.16;66.18
31346;BME280;21711;49.708;18.568;2023-07-24T05:12:26;96870.97;;;28.64;66.51
31346;BME280;21711;49.708;18.568;2023-07-24T05:14:53;96870.06;;;29.48;63.67
31346;BME280;21711;49.708;18.568;2023-07-24T05:17:21;96869.97;;;29.86;59.68
31346;BME280;21711;49.708;18.568;2023-07-24T05:19:48;96856.53;;;30.51;58.83
31346;BME280;21711;49.708;18.568;2023-07-24T05:22:15;96863.59;;;30.72;57.35
31346;BME280;21711;49.708;18.568;2023-07-24T05:24:43;96858.44;;;31.18;54.53
31346;BME280;21711;49.708;18.568;2023-07-24T05:27:10;96863.91;;;31.18;54.22
31346;BME280;21711;49.708;18.568;2023-07-24T05:29:39;96860.16;;;31.69;53.16
31346;BME280;21711;49.708;18.568;2023-07-24T05:32:07;96859.03;;;32.04;51.21
31346;BME280;21711;49.708;18.568;2023-07-24T05:34:34;96869.25;;;31.99;51.78
31346;BME280;21711;49.708;18.568;2023-07-24T05:37:01;96864.88;;;32.69;49.60
31346;BME280;21711;49.708;18.568;2023-07-24T05:39:30;96862.78;;;32.89;48.40
31346;BME280;21711;49.708;18.568;2023-07-24T05:41:57;96872.84;;;32.92;47.81
31346;BME280;21711;49.708;18.568;2023-07-24T05:44:25;96871.78;;;33.32;47.68
31346;BME280;21711;49.708;18.568;2023-07-24T05:46:52;96875.44;;;32.53;47.45
31346;BME280;21711;49.708;18.568;2023-07-24T05:49:19;96878.88;;;33.60;47.89
31346;BME280;21711;49.708;18.568;2023-07-24T05:51:47;96892.00;;;33.52;47.04
31346;BME280;21711;49.708;18.568;2023-07-24T05:54:14;96880.56;;;32.51;48.50
31346;BME280;21711;49.708;18.568;2023-07-24T05:56:41;96883.53;;;33.03;48.81
31346;BME280;21711;49.708;18.568;2023-07-24T05:59:08;96879.66;;;33.86;44.03
31346;BME280;21711;49.708;18.568;2023-07-24T06:01:36;96885.88;;;33.61;41.32
31346;BME280;21711;49.708;18.568;2023-07-24T06:04:03;96883.16;;;33.87;40.98
31346;BME280;21711;49.708;18.568;2023-07-24T06:06:32;96881.31;;;34.58;38.56
31346;BME280;21711;49.708;18.568;2023-07-24T06:09:00;96877.91;;;34.67;36.81
31346;BME280;21711;49.708;18.568;2023-07-24T06:11:27;96868.44;;;34.06;36.32
31346;BME280;21711;49.708;18.568;2023-07-24T06:13:54;96871.31;;;34.16;37.29
31346;BME280;21711;49.708;18.568;2023-07-24T06:16:22;96857.47;;;34.19;37.14
31346;BME280;21711;49.708;18.568;2023-07-24T06:18:49;96869.03;;;34.62;36.86
31346;BME280;21711;49.708;18.568;2023-07-24T06:21:17;96872.09;;;35.54;36.89
31346;BME280;21711;49.708;18.568;2023-07-24T06:23:44;96870.25;;;36.42;35.05
31346;BME280;21711;49.708;18.568;2023-07-24T06:26:11;96864.28;;;36.63;33.46
31346;BME280;21711;49.708;18.568;2023-07-24T06:28:38;96867.03;;;36.35;34.89
31346;BME280;21711;49.708;18.568;2023-07-24T06:31:06;96863.69;;;36.96;33.24
31346;BME280;21711;49.708;18.568;2023-07-24T06:33:33;96864.66;;;37.64;32.07
31346;BME280;21711;49.708;18.568;2023-07-24T06:36:00;96858.84;;;38.45;31.39
31346;BME280;21711;49.708;18.568;2023-07-24T06:38:28;96858.56;;;38.42;28.50
31346;BME280;21711;49.708;18.568;2023-07-24T06:40:55;96852.38;;;38.48;29.52
31346;BME280;21711;49.708;18.568;2023-07-24T06:43:22;96860.44;;;38.36;30.32
31346;BME280;21711;49.708;18.568;2023-07-24T06:45:50;96842.41;;;36.31;32.31
31346;BME280;21711;49.708;18.568;2023-07-24T06:48:17;96839.50;;;34.89;34.15
31346;BME280;21711;49.708;18.568;2023-07-24T06:50:44;96828.69;;;33.63;38.00
31346;BME280;21711;49.708;18.568;2023-07-24T06:53:12;96832.44;;;32.84;38.79
31346;BME280;21711;49.708;18.568;2023-07-24T06:55:39;96841.91;;;34.29;37.81
31346;BME280;21711;49.708;18.568;2023-07-24T06:58:08;96833.44;;;35.17;36.62
31346;BME280;21711;49.708;18.568;2023-07-24T07:00:35;96832.66;;;35.16;35.50
31346;BME280;21711;49.708;18.568;2023-07-24T07:03:03;96833.59;;;34.78;36.88
31346;BME280;21711;49.708;18.568;2023-07-24T07:05:32;96829.13;;;34.35;32.98
31346;BME280;21711;49.708;18.568;2023-07-24T07:07:59;96824.78;;;34.83;33.16
31346;BME280;21711;49.708;18.568;2023-07-24T07:10:27;96815.81;;;33.47;35.65
31346;BME280;21711;49.708;18.568;2023-07-24T07:12:54;96806.50;;;31.96;36.80
31346;BME280;21711;49.708;18.568;2023-07-24T07:15:22;96806.38;;;30.89;39.15
31346;BME280;21711;49.708;18.568;2023-07-24T07:17:49;96803.47;;;29.84;44.28
31346;BME280;21711;49.708;18.568;2023-07-24T07:20:17;96802.94;;;29.06;44.49
31346;BME280;21711;49.708;18.568;2023-07-24T07:22:44;96803.22;;;28.39;44.57
31346;BME280;21711;49.708;18.568;2023-07-24T07:25:11;96799.22;;;28.05;43.79
31346;BME280;21711;49.708;18.568;2023-07-24T07:27:39;96800.50;;;27.89;45.50
31346;BME280;21711;49.708;18.568;2023-07-24T07:30:07;96801.91;;;28.08;46.68
31346;BME280;21711;49.708;18.568;2023-07-24T07:32:34;96809.66;;;28.10;47.57
31346;BME280;21711;49.708;18.568;2023-07-24T07:35:02;96806.56;;;28.12;47.45
31346;BME280;21711;49.708;18.568;2023-07-24T07:37:30;96799.44;;;27.76;46.48
31346;BME280;21711;49.708;18.568;2023-07-24T07:39:57;96800.41;;;28.00;45.59
31346;BME280;21711;49.708;18.568;2023-07-24T07:42:25;96794.81;;;28.22;46.68
31346;BME280;21711;49.708;18.568;2023-07-24T07:44:52;96781.91;;;28.33;46.16
31346;BME280;21711;49.708;18.568;2023-07-24T07:47:19;96790.81;;;28.76;44.16
31346;BME280;21711;49.708;18.568;2023-07-24T07:49:47;96811.19;;;30.61;40.70
31346;BME280;21711;49.708;18.568;2023-07-24T07:52:14;96810.31;;;32.91;36.36
31346;BME280;21711;49.708;18.568;2023-07-24T07:54:48;96807.22;;;35.57;31.17
31346;BME280;21711;49.708;18.568;2023-07-24T07:57:16;96804.25;;;37.32;28.74
31346;BME280;21711;49.708;18.568;2023-07-24T07:59:43;96806.66;;;38.07;26.03
31346;BME280;21711;49.708;18.568;2023-07-24T08:02:11;96794.72;;;36.62;28.45
31346;BME280;21711;49.708;18.568;2023-07-24T08:04:38;96785.69;;;34.56;29.93
31346;BME280;21711;49.708;18.568;2023-07-24T08:07:05;96782.63;;;33.57;33.88
31346;BME280;21711;49.708;18.568;2023-07-24T08:09:33;96784.28;;;34.29;31.85
31346;BME280;21711;49.708;18.568;2023-07-24T08:12:00;96790.44;;;36.61;29.81
31346;BME280;21711;49.708;18.568;2023-07-24T08:14:28;96798.72;;;39.39;27.70
31346;BME280;21711;49.708;18.568;2023-07-24T08:16:55;96803.09;;;39.46;24.22
31346;BME280;21711;49.708;18.568;2023-07-24T08:19:22;96795.91;;;40.05;24.27
31346;BME280;21711;49.708;18.568;2023-07-24T08:21:50;96791.00;;;39.58;23.37
31346;BME280;21711;49.708;18.568;2023-07-24T08:24:17;96789.94;;;41.13;23.92
31346;BME280;21711;49.708;18.568;2023-07-24T08:26:45;96782.19;;;41.23;23.25
31346;BME280;21711;49.708;18.568;2023-07-24T08:29:12;96781.72;;;42.12;22.60
31346;BME280;21711;49.708;18.568;2023-07-24T08:31:39;96793.03;;;41.21;23.84
31346;BME280;21711;49.708;18.568;2023-07-24T08:34:07;96802.50;;;42.28;21.66
31346;BME280;21711;49.708;18.568;2023-07-24T08:36:34;96791.63;;;41.75;22.36
31346;BME280;21711;49.708;18.568;2023-07-24T08:39:02;96786.41;;;41.83;21.71
31346;BME280;21711;49.708;18.568;2023-07-24T08:41:30;96783.00;;;40.23;22.56
31346;BME280;21711;49.708;18.568;2023-07-24T08:43:59;96768.38;;;37.75;25.42
31346;BME280;21711;49.708;18.568;2023-07-24T08:46:27;96756.06;;;37.18;25.81
31346;BME280;21711;49.708;18.568;2023-07-24T08:48:56;96766.34;;;39.25;24.61
31346;BME280;21711;49.708;18.568;2023-07-24T08:51:24;96765.22;;;41.91;22.91
31346;BME280;21711;49.708;18.568;2023-07-24T08:53:52;96776.47;;;43.80;21.64
31346;BME280;21711;49.708;18.568;2023-07-24T08:56:19;96767.25;;;42.74;21.73
31346;BME280;21711;49.708;18.568;2023-07-24T08:58:47;96777.06;;;42.87;22.55
31346;BME280;21711;49.708;18.568;2023-07-24T09:01:15;96771.75;;;42.54;21.41
31346;BME280;21711;49.708;18.568;2023-07-24T09:03:42;96765.91;;;40.98;22.18
31346;BME280;21711;49.708;18.568;2023-07-24T09:06:10;96755.25;;;38.19;25.15
31346;BME280;21711;49.708;18.568;2023-07-24T09:08:40;96750.34;;;35.85;26.96
31346;BME280;21711;49.708;18.568;2023-07-24T09:11:11;96746.47;;;34.46;29.46
31346;BME280;21711;49.708;18.568;2023-07-24T09:13:44;96736.81;;;33.32;31.64
31346;BME280;21711;49.708;18.568;2023-07-24T09:16:25;96729.94;;;32.42;32.77
31346;BME280;21711;49.708;18.568;2023-07-24T09:18:53;96730.66;;;32.30;33.81
31346;BME280;21711;49.708;18.568;2023-07-24T09:21:32;96720.72;;;31.73;33.41
31346;BME280;21711;49.708;18.568;2023-07-24T09:24:29;96721.91;;;31.39;33.96
31346;BME280;21711;49.708;18.568;2023-07-24T09:26:56;96715.78;;;30.77;34.61
31346;BME280;21711;49.708;18.568;2023-07-24T09:29:32;96714.34;;;30.73;35.83
31346;BME280;21711;49.708;18.568;2023-07-24T09:32:00;96713.56;;;31.09;36.07
31346;BME280;21711;49.708;18.568;2023-07-24T09:34:28;96713.63;;;32.68;34.20
31346;BME280;21711;49.708;18.568;2023-07-24T09:36:55;96707.66;;;33.64;33.42
31346;BME280;21711;49.708;18.568;2023-07-24T09:39:25;96706.81;;;33.90;33.09
31346;BME280;21711;49.708;18.568;2023-07-24T09:42:04;96699.00;;;36.66;27.56
31346;BME280;21711;49.708;18.568;2023-07-24T09:44:32;96696.56;;;36.12;28.88
31346;BME280;21711;49.708;18.568;2023-07-24T09:47:00;96690.72;;;34.72;31.15
31346;BME280;21711;49.708;18.568;2023-07-24T09:49:48;96676.09;;;33.95;34.42
31346;BME280;21711;49.708;18.568;2023-07-24T09:52:18;96693.78;;;34.29;34.30
31346;BME280;21711;49.708;18.568;2023-07-24T09:55:21;96693.84;;;34.39;31.87
31346;BME280;21711;49.708;18.568;2023-07-24T09:57:53;96686.63;;;35.18;33.42
31346;BME280;21711;49.708;18.568;2023-07-24T10:00:22;96678.16;;;35.02;30.66
31346;BME280;21711;49.708;18.568;2023-07-24T10:02:50;96674.72;;;34.57;34.00
31346;BME280;21711;49.708;18.568;2023-07-24T10:05:18;96668.63;;;34.08;33.51
31346;BME280;21711;49.708;18.568;2023-07-24T10:07:46;96664.38;;;33.46;33.50
31346;BME280;21711;49.708;18.568;2023-07-24T10:10:14;96663.53;;;33.10;36.12
31346;BME280;21711;49.708;18.568;2023-07-24T10:12:42;96654.41;;;32.87;32.10
31346;BME280;21711;49.708;18.568;2023-07-24T10:15:10;96650.06;;;33.03;35.87
31346;BME280;21711;49.708;18.568;2023-07-24T10:17:40;96650.09;;;33.64;33.68
31346;BME280;21711;49.708;18.568;2023-07-24T10:20:10;96658.19;;;35.52;36.31
31346;BME280;21711;49.708;18.568;2023-07-24T10:22:42;96659.06;;;38.57;28.45
31346;BME280;21711;49.708;18.568;2023-07-24T10:25:10;96659.25;;;38.53;26.93
31346;BME280;21711;49.708;18.568;2023-07-24T10:27:45;96661.06;;;38.57;27.98
31346;BME280;21711;49.708;18.568;2023-07-24T10:30:14;96651.16;;;37.80;30.84
31346;BME280;21711;49.708;18.568;2023-07-24T10:33:09;96637.47;;;35.79;29.39
31346;BME280;21711;49.708;18.568;2023-07-24T10:35:53;96636.25;;;35.11;33.04
31346;BME280;21711;49.708;18.568;2023-07-24T10:38:35;96637.31;;;35.74;32.33
31346;BME280;21711;49.708;18.568;2023-07-24T10:41:08;96636.75;;;36.59;32.49
31346;BME280;21711;49.708;18.568;2023-07-24T10:43:51;96643.38;;;36.43;32.90
31346;BME280;21711;49.708;18.568;2023-07-24T10:46:20;96634.09;;;36.84;31.20
31346;BME280;21711;49.708;18.568;2023-07-24T10:48:50;96624.78;;;37.15;32.49
31346;BME280;21711;49.708;18.568;2023-07-24T10:51:18;96625.38;;;36.24;33.19
31346;BME280;21711;49.708;18.568;2023-07-24T10:53:48;96622.97;;;35.10;31.69
31346;BME280;21711;49.708;18.568;2023-07-24T10:56:17;96621.06;;;35.48;33.54
31346;BME280;21711;49.708;18.568;2023-07-24T10:58:44;96611.19;;;35.00;34.12
31346;BME280;21711;49.708;18.568;2023-07-24T11:01:11;96614.41;;;34.67;35.31
31346;BME280;21711;49.708;18.568;2023-07-24T11:03:41;96603.88;;;34.33;33.80
31346;BME280;21711;49.708;18.568;2023-07-24T11:06:18;96606.03;;;33.94;32.61
31346;BME280;21711;49.708;18.568;2023-07-24T11:08:54;96597.22;;;33.54;34.38
31346;BME280;21711;49.708;18.568;2023-07-24T11:11:34;96590.88;;;33.31;41.07
31346;BME280;21711;49.708;18.568;2023-07-24T11:14:03;96589.63;;;32.84;50.11
31346;BME280;21711;49.708;18.568;2023-07-24T11:16:31;96591.25;;;32.56;48.51
31346;BME280;21711;49.708;18.568;2023-07-24T11:19:00;96593.69;;;32.11;53.08
31346;BME280;21711;49.708;18.568;2023-07-24T11:21:28;96581.38;;;31.73;55.75
31346;BME280;21711;49.708;18.568;2023-07-24T11:23:57;96580.03;;;31.35;58.76
31346;BME280;21711;49.708;18.568;2023-07-24T11:26:26;96574.94;;;30.83;60.76
31346;BME280;21711;49.708;18.568;2023-07-24T11:28:54;96578.53;;;30.43;63.65
31346;BME280;21711;49.708;18.568;2023-07-24T11:31:22;96567.97;;;30.05;64.31
31346;BME280;21711;49.708;18.568;2023-07-24T11:33:51;96563.88;;;29.97;63.34
31346;BME280;21711;49.708;18.568;2023-07-24T11:36:19;96556.63;;;29.90;66.92
31346;BME280;21711;49.708;18.568;2023-07-24T11:38:47;96547.09;;;29.98;67.67
31346;BME280;21711;49.708;18.568;2023-07-24T11:41:17;96549.94;;;30.31;67.63
31346;BME280;21711;49.708;18.568;2023-07-24T11:43:48;96539.78;;;30.69;69.39
31346;BME280;21711;49.708;18.568;2023-07-24T11:46:27;96539.06;;;31.94;59.55
31346;BME280;21711;49.708;18.568;2023-07-24T11:48:55;96548.38;;;33.40;53.96
31346;BME280;21711;49.708;18.568;2023-07-24T11:51:28;96548.28;;;33.88;48.65
31346;BME280;21711;49.708;18.568;2023-07-24T11:54:11;96540.97;;;33.63;50.18
31346;BME280;21711;49.708;18.568;2023-07-24T11:56:39;96530.69;;;34.21;47.77
31346;BME280;21711;49.708;18.568;2023-07-24T11:59:13;96526.81;;;34.09;44.60
31346;BME280;21711;49.708;18.568;2023-07-24T12:01:51;96525.50;;;34.01;46.63
31346;BME280;21711;49.708;18.568;2023-07-24T12:04:18;96513.41;;;34.11;46.16
31346;BME280;21711;49.708;18.568;2023-07-24T12:06:47;96503.91;;;33.80;44.16
31346;BME280;21711;49.708;18.568;2023-07-24T12:09:15;96490.88;;;33.62;43.96
31346;BME280;21711;49.708;18.568;2023-07-24T12:11:43;96495.59;;;33.84;49.81
31346;BME280;21711;49.708;18.568;2023-07-24T12:14:13;96489.47;;;33.57;47.74
31346;BME280;21711;49.708;18.568;2023-07-24T12:16:42;96494.94;;;33.57;39.01
31346;BME280;21711;49.708;18.568;2023-07-24T12:19:10;96474.66;;;33.32;36.25
31346;BME280;21711;49.708;18.568;2023-07-24T12:21:38;96474.94;;;32.64;35.82
31346;BME280;21711;49.708;18.568;2023-07-24T12:24:05;96467.28;;;32.59;36.89
31346;BME280;21711;49.708;18.568;2023-07-24T12:26:33;96470.22;;;32.64;36.34
31346;BME280;21711;49.708;18.568;2023-07-24T12:29:00;96462.66;;;33.17;38.44
31346;BME280;21711;49.708;18.568;2023-07-24T12:31:28;96454.50;;;33.04;35.34
31346;BME280;21711;49.708;18.568;2023-07-24T12:33:56;96455.09;;;33.21;36.33
31346;BME280;21711;49.708;18.568;2023-07-24T12:36:24;96445.88;;;33.50;35.53
31346;BME280;21711;49.708;18.568;2023-07-24T12:38:51;96425.28;;;33.45;35.37
31346;BME280;21711;49.708;18.568;2023-07-24T12:41:19;96428.72;;;33.14;36.33
31346;BME280;21711;49.708;18.568;2023-07-24T12:43:46;96417.84;;;32.88;35.06
31346;BME280;21711;49.708;18.568;2023-07-24T12:46:13;96424.25;;;32.72;36.69
31346;BME280;21711;49.708;18.568;2023-07-24T12:48:41;96407.31;;;33.00;38.28
31346;BME280;21711;49.708;18.568;2023-07-24T12:51:08;96413.44;;;33.26;40.82
31346;BME280;21711;49.708;18.568;2023-07-24T12:53:35;96398.53;;;33.27;41.36
31346;BME280;21711;49.708;18.568;2023-07-24T12:56:23;96395.28;;;33.42;42.34
31346;BME280;21711;49.708;18.568;2023-07-24T12:58:50;96392.81;;;33.57;45.34